Troy Jacob — WDI3658 — position and weather

sailwx.info

Track history (hours):
 
Tides and Currents Weather Stations Pressure Air Temp Water Temp Dewpoint Dewpoint Depression Visibility Wind Speed Wind Dir Waves Ship Positions

Troy Jacob

Owner: ABC Marine Towing, Harvey, LA. More information available from US FCC via Universal Licensing System and Coast Guard Vessel Documentation Center.

Last reported at 2018-Jun-10 09:25 UTC. Time now 2018-Jun-22 18:36 UTC.
Position N 29°57' W 090°22'.
Warning: this ship's position is 12 days out of date.

Length 19 m; draft 3.5 m.

Type: Tug. MMSI: 367021840.

Date/timePositionNaut miles runAvg speedWind from/ knotsBaromVisibWave heightAir tempDewpointWater temp
2018-Jun-10 09:25N 29°57' W 090°22'24 1.8
2018-Jun-09 20:03N 29°33' W 090°25'0 6.6
2018-Jun-09 20:00N 29°33' W 090°26'3 6.6
2018-Jun-09 19:30N 29°34' W 090°30'3 6.5
2018-Jun-09 19:00N 29°34' W 090°33'3 5.9
2018-Jun-09 18:30N 29°35' W 090°37'1 1.6
2018-Jun-09 18:00N 29°35' W 090°37'3 6.3
2018-Jun-09 17:30N 29°36' W 090°41'2 3.9
2018-Jun-09 16:59N 29°35' W 090°43'2 3.8
2018-Jun-09 16:30N 29°34' W 090°42'0 0.7
2018-Jun-09 16:00N 29°34' W 090°43'3 5.1
2018-Jun-09 15:30N 29°33' W 090°45'13 0.9
2018-Jun-09 01:49N 29°37' W 090°59'2 5.2
2018-Jun-09 01:27N 29°35' W 090°58'2 5.1
2018-Jun-09 01:00N 29°34' W 090°56'3 5.2
2018-Jun-09 00:27N 29°32' W 090°53'2 5.1
2018-Jun-09 00:00N 29°32' W 090°50'3 5.3
2018-Jun-08 23:30N 29°32' W 090°47'2 4.6
2018-Jun-08 23:00N 29°33' W 090°45'2 4.3
2018-Jun-08 22:30N 29°35' W 090°43'2 5.0
2018-Jun-08 22:00N 29°37' W 090°42'0 0.9
2018-Jun-08 21:30N 29°37' W 090°42'2 3.4
2018-Jun-08 21:00N 29°36' W 090°40'3 5.3
2018-Jun-08 20:30N 29°35' W 090°37'1 2.3
2018-Jun-08 20:00N 29°35' W 090°36'0 0.0
2018-Jun-08 19:30N 29°35' W 090°36'2 4.8
2018-Jun-08 19:00N 29°34' W 090°33'3 5.1
2018-Jun-08 18:30N 29°34' W 090°30'3 5.1
2018-Jun-08 17:57N 29°33' W 090°27'  
2018-Jun-02 03:46N 29°34' W 090°23'1 3.3
2018-Jun-02 03:30N 29°33' W 090°24'3 5.2
2018-Jun-02 03:00N 29°33' W 090°27'3 5.4
2018-Jun-02 02:30N 29°34' W 090°30'3 5.1
2018-Jun-02 02:00N 29°34' W 090°33'2 4.8
2018-Jun-02 01:30N 29°35' W 090°35'3 5.4
2018-Jun-02 01:00N 29°35' W 090°38'3 5.7
2018-Jun-02 00:30N 29°37' W 090°41'2 3.8
2018-Jun-02 00:00N 29°35' W 090°43'2 4.1
2018-Jun-01 23:30N 29°34' W 090°45'3 5.2
2018-Jun-01 23:00N 29°32' W 090°47'3 6.3
2018-Jun-01 22:29N 29°32' W 090°51'2 3.0
2018-Jun-01 21:55N 29°32' W 090°53'7 0.6
2018-Jun-01 09:42N 29°37' W 090°59'1 6.1
2018-Jun-01 09:28N 29°36' W 090°58'3 6.0
2018-Jun-01 09:00N 29°34' W 090°56'3 6.4
2018-Jun-01 08:28N 29°32' W 090°52'3 6.2
2018-Jun-01 08:00N 29°32' W 090°49'3 5.9
2018-Jun-01 07:30N 29°32' W 090°46'3 5.5
2018-Jun-01 07:00N 29°34' W 090°43'2 4.9
2018-Jun-01 06:30N 29°37' W 090°42'3 5.7
2018-Jun-01 06:00N 29°36' W 090°39'3 6.1
2018-Jun-01 05:30N 29°35' W 090°36'3 6.1
2018-Jun-01 05:00N 29°34' W 090°33'3 6.2
2018-Jun-01 04:30N 29°34' W 090°29'3 6.2
2018-Jun-01 04:00N 29°33' W 090°26'  
Track history (hours):
 
Tides and Currents Weather Stations Pressure Air Temp Water Temp Dewpoint Dewpoint Depression Visibility Wind Speed Wind Dir Waves Ship Positions

Troy Jacob

Owner: ABC Marine Towing, Harvey, LA. More information available from US FCC via Universal Licensing System and Coast Guard Vessel Documentation Center.

Last reported at 2018-Jun-10 09:25 UTC. Time now 2018-Jun-22 18:36 UTC.
Position N 29°57' W 090°22'.
Warning: this ship's position is 12 days out of date.

Length 19 m; draft 3.5 m.

Type: Tug. MMSI: 367021840.

Date/timePositionNaut miles runAvg speedWind from/ knotsBaromVisibWave heightAir tempDewpointWater temp
2018-Jun-10 09:25N 29°57' W 090°22'24 1.8
2018-Jun-09 20:03N 29°33' W 090°25'0 6.6
2018-Jun-09 20:00N 29°33' W 090°26'3 6.6
2018-Jun-09 19:30N 29°34' W 090°30'3 6.5
2018-Jun-09 19:00N 29°34' W 090°33'3 5.9
2018-Jun-09 18:30N 29°35' W 090°37'1 1.6
2018-Jun-09 18:00N 29°35' W 090°37'3 6.3
2018-Jun-09 17:30N 29°36' W 090°41'2 3.9
2018-Jun-09 16:59N 29°35' W 090°43'2 3.8
2018-Jun-09 16:30N 29°34' W 090°42'0 0.7
2018-Jun-09 16:00N 29°34' W 090°43'3 5.1
2018-Jun-09 15:30N 29°33' W 090°45'13 0.9
2018-Jun-09 01:49N 29°37' W 090°59'2 5.2
2018-Jun-09 01:27N 29°35' W 090°58'2 5.1
2018-Jun-09 01:00N 29°34' W 090°56'3 5.2
2018-Jun-09 00:27N 29°32' W 090°53'2 5.1
2018-Jun-09 00:00N 29°32' W 090°50'3 5.3
2018-Jun-08 23:30N 29°32' W 090°47'2 4.6
2018-Jun-08 23:00N 29°33' W 090°45'2 4.3
2018-Jun-08 22:30N 29°35' W 090°43'2 5.0
2018-Jun-08 22:00N 29°37' W 090°42'0 0.9
2018-Jun-08 21:30N 29°37' W 090°42'2 3.4
2018-Jun-08 21:00N 29°36' W 090°40'3 5.3
2018-Jun-08 20:30N 29°35' W 090°37'1 2.3
2018-Jun-08 20:00N 29°35' W 090°36'0 0.0
2018-Jun-08 19:30N 29°35' W 090°36'2 4.8
2018-Jun-08 19:00N 29°34' W 090°33'3 5.1
2018-Jun-08 18:30N 29°34' W 090°30'3 5.1
2018-Jun-08 17:57N 29°33' W 090°27'  
2018-Jun-02 03:46N 29°34' W 090°23'1 3.3
2018-Jun-02 03:30N 29°33' W 090°24'3 5.2
2018-Jun-02 03:00N 29°33' W 090°27'3 5.4
2018-Jun-02 02:30N 29°34' W 090°30'3 5.1
2018-Jun-02 02:00N 29°34' W 090°33'2 4.8
2018-Jun-02 01:30N 29°35' W 090°35'3 5.4
2018-Jun-02 01:00N 29°35' W 090°38'3 5.7
2018-Jun-02 00:30N 29°37' W 090°41'2 3.8
2018-Jun-02 00:00N 29°35' W 090°43'2 4.1
2018-Jun-01 23:30N 29°34' W 090°45'3 5.2
2018-Jun-01 23:00N 29°32' W 090°47'3 6.3
2018-Jun-01 22:29N 29°32' W 090°51'2 3.0
2018-Jun-01 21:55N 29°32' W 090°53'7 0.6
2018-Jun-01 09:42N 29°37' W 090°59'1 6.1
2018-Jun-01 09:28N 29°36' W 090°58'3 6.0
2018-Jun-01 09:00N 29°34' W 090°56'3 6.4
2018-Jun-01 08:28N 29°32' W 090°52'3 6.2
2018-Jun-01 08:00N 29°32' W 090°49'3 5.9
2018-Jun-01 07:30N 29°32' W 090°46'3 5.5
2018-Jun-01 07:00N 29°34' W 090°43'2 4.9
2018-Jun-01 06:30N 29°37' W 090°42'3 5.7
2018-Jun-01 06:00N 29°36' W 090°39'3 6.1
2018-Jun-01 05:30N 29°35' W 090°36'3 6.1
2018-Jun-01 05:00N 29°34' W 090°33'3 6.2
2018-Jun-01 04:30N 29°34' W 090°29'3 6.2
2018-Jun-01 04:00N 29°33' W 090°26'  

Dump ship's entire track history